sensor_id;sensor_type;location;lat;lon;timestamp;P1;durP1;ratioP1;P2;durP2;ratioP2
75297;SDS011;63896;45.990;18.688;2023-07-28T00:02:14;5.57;;;4.18;;
75297;SDS011;63896;45.990;18.688;2023-07-28T00:05:17;6.60;;;4.80;;
75297;SDS011;63896;45.990;18.688;2023-07-28T00:08:20;8.07;;;4.70;;
75297;SDS011;63896;45.990;18.688;2023-07-28T00:11:22;8.40;;;4.88;;
75297;SDS011;63896;45.990;18.688;2023-07-28T00:14:26;6.70;;;4.53;;
75297;SDS011;63896;45.990;18.688;2023-07-28T00:17:29;9.20;;;4.38;;
75297;SDS011;63896;45.990;18.688;2023-07-28T00:20:32;7.70;;;4.47;;
75297;SDS011;63896;45.990;18.688;2023-07-28T00:23:34;6.75;;;4.07;;
75297;SDS011;63896;45.990;18.688;2023-07-28T00:26:37;6.05;;;4.20;;
75297;SDS011;63896;45.990;18.688;2023-07-28T00:29:41;5.37;;;3.80;;
75297;SDS011;63896;45.990;18.688;2023-07-28T00:32:44;6.70;;;3.95;;
75297;SDS011;63896;45.990;18.688;2023-07-28T00:35:47;6.85;;;4.18;;
75297;SDS011;63896;45.990;18.688;2023-07-28T00:38:49;9.57;;;3.90;;
75297;SDS011;63896;45.990;18.688;2023-07-28T00:41:52;8.18;;;3.83;;
75297;SDS011;63896;45.990;18.688;2023-07-28T00:44:55;5.17;;;3.73;;
75297;SDS011;63896;45.990;18.688;2023-07-28T00:47:58;6.65;;;4.13;;
75297;SDS011;63896;45.990;18.688;2023-07-28T00:51:01;5.15;;;3.58;;
75297;SDS011;63896;45.990;18.688;2023-07-28T00:54:05;5.95;;;3.70;;
75297;SDS011;63896;45.990;18.688;2023-07-28T00:57:08;5.10;;;3.80;;
75297;SDS011;63896;45.990;18.688;2023-07-28T01:00:12;7.03;;;3.80;;
75297;SDS011;63896;45.990;18.688;2023-07-28T01:03:15;4.65;;;3.70;;
75297;SDS011;63896;45.990;18.688;2023-07-28T01:06:23;6.20;;;3.80;;
75297;SDS011;63896;45.990;18.688;2023-07-28T01:09:40;6.78;;;3.80;;
75297;SDS011;63896;45.990;18.688;2023-07-28T01:12:49;5.30;;;3.55;;
75297;SDS011;63896;45.990;18.688;2023-07-28T01:15:52;9.80;;;3.97;;
75297;SDS011;63896;45.990;18.688;2023-07-28T01:18:54;5.72;;;4.05;;
75297;SDS011;63896;45.990;18.688;2023-07-28T01:22:08;5.70;;;3.90;;
75297;SDS011;63896;45.990;18.688;2023-07-28T01:25:39;5.13;;;4.00;;
75297;SDS011;63896;45.990;18.688;2023-07-28T01:28:50;6.18;;;4.20;;
75297;SDS011;63896;45.990;18.688;2023-07-28T01:31:54;6.67;;;4.43;;
75297;SDS011;63896;45.990;18.688;2023-07-28T01:34:57;9.50;;;4.78;;
75297;SDS011;63896;45.990;18.688;2023-07-28T01:37:59;6.35;;;4.30;;
75297;SDS011;63896;45.990;18.688;2023-07-28T01:41:02;5.97;;;4.47;;
75297;SDS011;63896;45.990;18.688;2023-07-28T01:44:05;7.50;;;4.53;;
75297;SDS011;63896;45.990;18.688;2023-07-28T01:47:08;6.23;;;4.17;;
75297;SDS011;63896;45.990;18.688;2023-07-28T01:50:11;5.75;;;3.85;;
75297;SDS011;63896;45.990;18.688;2023-07-28T01:53:13;6.07;;;4.45;;
75297;SDS011;63896;45.990;18.688;2023-07-28T01:56:16;8.88;;;4.38;;
75297;SDS011;63896;45.990;18.688;2023-07-28T01:59:19;7.22;;;4.80;;
75297;SDS011;63896;45.990;18.688;2023-07-28T02:02:23;6.60;;;4.70;;
75297;SDS011;63896;45.990;18.688;2023-07-28T02:05:26;8.18;;;4.38;;
75297;SDS011;63896;45.990;18.688;2023-07-28T02:08:29;5.78;;;4.38;;
75297;SDS011;63896;45.990;18.688;2023-07-28T02:11:32;5.97;;;4.22;;
75297;SDS011;63896;45.990;18.688;2023-07-28T02:14:35;9.15;;;4.50;;
75297;SDS011;63896;45.990;18.688;2023-07-28T02:17:38;5.63;;;4.30;;
75297;SDS011;63896;45.990;18.688;2023-07-28T02:20:41;7.20;;;4.53;;
75297;SDS011;63896;45.990;18.688;2023-07-28T02:23:43;8.65;;;4.63;;
75297;SDS011;63896;45.990;18.688;2023-07-28T02:26:46;8.23;;;4.68;;
75297;SDS011;63896;45.990;18.688;2023-07-28T02:29:49;6.88;;;4.95;;
75297;SDS011;63896;45.990;18.688;2023-07-28T02:32:52;6.87;;;4.80;;
75297;SDS011;63896;45.990;18.688;2023-07-28T02:35:55;7.03;;;4.43;;
75297;SDS011;63896;45.990;18.688;2023-07-28T02:38:59;5.72;;;4.15;;
75297;SDS011;63896;45.990;18.688;2023-07-28T02:42:01;5.28;;;3.92;;
75297;SDS011;63896;45.990;18.688;2023-07-28T02:45:04;5.72;;;4.30;;
75297;SDS011;63896;45.990;18.688;2023-07-28T02:48:08;6.53;;;3.80;;
75297;SDS011;63896;45.990;18.688;2023-07-28T02:51:11;6.95;;;3.90;;
75297;SDS011;63896;45.990;18.688;2023-07-28T02:54:13;7.72;;;4.20;;
75297;SDS011;63896;45.990;18.688;2023-07-28T02:57:16;6.88;;;4.70;;
75297;SDS011;63896;45.990;18.688;2023-07-28T03:00:22;6.93;;;4.63;;
75297;SDS011;63896;45.990;18.688;2023-07-28T03:03:25;5.73;;;4.40;;
75297;SDS011;63896;45.990;18.688;2023-07-28T03:06:28;7.68;;;4.10;;
75297;SDS011;63896;45.990;18.688;2023-07-28T03:09:32;17.65;;;5.53;;
75297;SDS011;63896;45.990;18.688;2023-07-28T03:12:36;5.95;;;4.47;;
75297;SDS011;63896;45.990;18.688;2023-07-28T03:15:39;8.20;;;4.72;;
75297;SDS011;63896;45.990;18.688;2023-07-28T03:18:42;7.13;;;4.07;;
75297;SDS011;63896;45.990;18.688;2023-07-28T03:21:45;7.90;;;4.70;;
75297;SDS011;63896;45.990;18.688;2023-07-28T03:24:48;6.93;;;4.65;;
75297;SDS011;63896;45.990;18.688;2023-07-28T03:27:51;14.07;;;4.80;;
75297;SDS011;63896;45.990;18.688;2023-07-28T03:30:55;9.02;;;5.05;;
75297;SDS011;63896;45.990;18.688;2023-07-28T03:33:58;5.80;;;4.33;;
75297;SDS011;63896;45.990;18.688;2023-07-28T03:37:02;9.82;;;5.00;;
75297;SDS011;63896;45.990;18.688;2023-07-28T03:40:05;9.05;;;5.32;;
75297;SDS011;63896;45.990;18.688;2023-07-28T03:43:20;8.65;;;5.18;;
75297;SDS011;63896;45.990;18.688;2023-07-28T03:46:24;8.02;;;5.15;;
75297;SDS011;63896;45.990;18.688;2023-07-28T03:49:29;7.47;;;5.47;;
75297;SDS011;63896;45.990;18.688;2023-07-28T03:52:32;7.30;;;4.82;;
75297;SDS011;63896;45.990;18.688;2023-07-28T03:55:35;6.72;;;4.95;;
75297;SDS011;63896;45.990;18.688;2023-07-28T03:58:38;6.38;;;4.85;;
75297;SDS011;63896;45.990;18.688;2023-07-28T04:01:41;10.10;;;4.90;;
75297;SDS011;63896;45.990;18.688;2023-07-28T04:04:44;6.60;;;4.87;;
75297;SDS011;63896;45.990;18.688;2023-07-28T04:07:47;11.73;;;5.00;;
75297;SDS011;63896;45.990;18.688;2023-07-28T04:10:50;8.52;;;5.00;;
75297;SDS011;63896;45.990;18.688;2023-07-28T04:13:53;8.48;;;5.30;;
75297;SDS011;63896;45.990;18.688;2023-07-28T04:16:56;7.50;;;5.07;;
75297;SDS011;63896;45.990;18.688;2023-07-28T04:19:58;13.23;;;5.27;;
75297;SDS011;63896;45.990;18.688;2023-07-28T04:23:01;7.85;;;4.63;;
75297;SDS011;63896;45.990;18.688;2023-07-28T04:26:10;6.68;;;4.63;;
75297;SDS011;63896;45.990;18.688;2023-07-28T04:29:14;5.85;;;4.30;;
75297;SDS011;63896;45.990;18.688;2023-07-28T04:32:17;7.22;;;5.00;;
75297;SDS011;63896;45.990;18.688;2023-07-28T04:35:20;13.13;;;4.90;;
75297;SDS011;63896;45.990;18.688;2023-07-28T04:38:48;7.93;;;5.20;;
75297;SDS011;63896;45.990;18.688;2023-07-28T04:41:51;6.10;;;4.70;;
75297;SDS011;63896;45.990;18.688;2023-07-28T04:44:54;7.10;;;4.50;;
75297;SDS011;63896;45.990;18.688;2023-07-28T04:47:57;10.35;;;4.47;;
75297;SDS011;63896;45.990;18.688;2023-07-28T04:51:00;5.10;;;3.80;;
75297;SDS011;63896;45.990;18.688;2023-07-28T04:54:21;7.57;;;4.47;;
75297;SDS011;63896;45.990;18.688;2023-07-28T04:57:24;5.53;;;4.00;;
75297;SDS011;63896;45.990;18.688;2023-07-28T05:00:27;4.15;;;3.65;;
75297;SDS011;63896;45.990;18.688;2023-07-28T05:03:30;5.45;;;4.05;;
75297;SDS011;63896;45.990;18.688;2023-07-28T05:06:53;5.10;;;3.80;;
75297;SDS011;63896;45.990;18.688;2023-07-28T05:09:57;5.45;;;3.30;;
75297;SDS011;63896;45.990;18.688;2023-07-28T05:13:02;5.07;;;3.63;;
75297;SDS011;63896;45.990;18.688;2023-07-28T05:16:07;7.35;;;3.50;;
75297;SDS011;63896;45.990;18.688;2023-07-28T05:19:31;5.20;;;3.28;;
75297;SDS011;63896;45.990;18.688;2023-07-28T05:22:57;4.30;;;3.00;;
75297;SDS011;63896;45.990;18.688;2023-07-28T05:26:03;4.15;;;2.80;;
75297;SDS011;63896;45.990;18.688;2023-07-28T05:29:06;4.85;;;3.05;;
75297;SDS011;63896;45.990;18.688;2023-07-28T05:32:09;7.07;;;3.00;;
75297;SDS011;63896;45.990;18.688;2023-07-28T05:35:44;5.18;;;3.15;;
75297;SDS011;63896;45.990;18.688;2023-07-28T05:38:47;8.17;;;3.20;;
75297;SDS011;63896;45.990;18.688;2023-07-28T05:41:51;6.93;;;3.58;;
75297;SDS011;63896;45.990;18.688;2023-07-28T05:44:54;6.13;;;3.42;;
75297;SDS011;63896;45.990;18.688;2023-07-28T05:47:58;4.35;;;3.13;;
75297;SDS011;63896;45.990;18.688;2023-07-28T05:51:01;7.88;;;3.75;;
75297;SDS011;63896;45.990;18.688;2023-07-28T05:54:03;4.77;;;3.00;;
75297;SDS011;63896;45.990;18.688;2023-07-28T05:57:12;6.78;;;3.50;;
75297;SDS011;63896;45.990;18.688;2023-07-28T06:00:15;5.50;;;3.35;;
75297;SDS011;63896;45.990;18.688;2023-07-28T06:03:19;3.72;;;3.03;;
75297;SDS011;63896;45.990;18.688;2023-07-28T06:06:34;5.65;;;3.42;;
75297;SDS011;63896;45.990;18.688;2023-07-28T06:09:37;5.80;;;4.30;;
75297;SDS011;63896;45.990;18.688;2023-07-28T06:12:41;4.30;;;3.10;;
75297;SDS011;63896;45.990;18.688;2023-07-28T06:15:44;4.00;;;3.20;;
75297;SDS011;63896;45.990;18.688;2023-07-28T06:18:47;2.92;;;2.63;;
75297;SDS011;63896;45.990;18.688;2023-07-28T06:22:10;3.67;;;2.55;;
75297;SDS011;63896;45.990;18.688;2023-07-28T06:25:19;6.68;;;2.83;;
75297;SDS011;63896;45.990;18.688;2023-07-28T06:28:22;9.77;;;2.72;;
75297;SDS011;63896;45.990;18.688;2023-07-28T06:31:25;3.37;;;2.30;;
75297;SDS011;63896;45.990;18.688;2023-07-28T06:34:28;4.05;;;2.40;;
75297;SDS011;63896;45.990;18.688;2023-07-28T06:37:37;3.35;;;2.30;;
75297;SDS011;63896;45.990;18.688;2023-07-28T06:40:41;4.47;;;2.00;;
75297;SDS011;63896;45.990;18.688;2023-07-28T06:43:44;5.30;;;2.05;;
75297;SDS011;63896;45.990;18.688;2023-07-28T06:46:48;2.87;;;1.77;;
75297;SDS011;63896;45.990;18.688;2023-07-28T06:49:51;2.10;;;1.50;;
75297;SDS011;63896;45.990;18.688;2023-07-28T06:52:54;3.25;;;1.92;;
75297;SDS011;63896;45.990;18.688;2023-07-28T06:56:00;2.45;;;1.65;;
75297;SDS011;63896;45.990;18.688;2023-07-28T06:59:03;3.22;;;1.95;;
75297;SDS011;63896;45.990;18.688;2023-07-28T07:05:57;3.70;;;2.15;;
75297;SDS011;63896;45.990;18.688;2023-07-28T07:09:00;4.28;;;1.90;;
75297;SDS011;63896;45.990;18.688;2023-07-28T07:12:03;2.88;;;1.90;;
75297;SDS011;63896;45.990;18.688;2023-07-28T07:15:06;4.72;;;2.20;;
75297;SDS011;63896;45.990;18.688;2023-07-28T07:18:09;2.90;;;1.77;;
75297;SDS011;63896;45.990;18.688;2023-07-28T07:21:12;3.30;;;1.73;;
75297;SDS011;63896;45.990;18.688;2023-07-28T07:24:19;8.30;;;2.28;;
75297;SDS011;63896;45.990;18.688;2023-07-28T07:27:23;3.28;;;2.15;;
75297;SDS011;63896;45.990;18.688;2023-07-28T07:30:27;2.35;;;2.10;;
75297;SDS011;63896;45.990;18.688;2023-07-28T07:33:30;4.23;;;1.97;;
75297;SDS011;63896;45.990;18.688;2023-07-28T07:36:33;4.00;;;1.70;;
75297;SDS011;63896;45.990;18.688;2023-07-28T07:39:36;3.75;;;1.80;;
75297;SDS011;63896;45.990;18.688;2023-07-28T07:42:48;2.28;;;1.90;;
75297;SDS011;63896;45.990;18.688;2023-07-28T07:45:51;5.05;;;2.40;;
75297;SDS011;63896;45.990;18.688;2023-07-28T07:48:57;3.33;;;2.50;;
75297;SDS011;63896;45.990;18.688;2023-07-28T07:51:59;2.85;;;2.00;;
75297;SDS011;63896;45.990;18.688;2023-07-28T07:55:03;3.42;;;1.77;;
75297;SDS011;63896;45.990;18.688;2023-07-28T07:58:06;2.38;;;1.70;;
75297;SDS011;63896;45.990;18.688;2023-07-28T08:01:09;3.53;;;1.90;;
75297;SDS011;63896;45.990;18.688;2023-07-28T08:04:11;7.57;;;2.97;;
75297;SDS011;63896;45.990;18.688;2023-07-28T08:07:14;2.75;;;1.90;;
75297;SDS011;63896;45.990;18.688;2023-07-28T08:10:18;3.72;;;1.80;;
75297;SDS011;63896;45.990;18.688;2023-07-28T08:13:21;3.78;;;1.85;;
75297;SDS011;63896;45.990;18.688;2023-07-28T08:16:25;4.82;;;1.85;;
75297;SDS011;63896;45.990;18.688;2023-07-28T08:19:28;1.73;;;1.60;;
75297;SDS011;63896;45.990;18.688;2023-07-28T08:22:30;1.70;;;1.50;;
75297;SDS011;63896;45.990;18.688;2023-07-28T08:25:33;3.83;;;1.48;;
75297;SDS011;63896;45.990;18.688;2023-07-28T08:28:37;1.98;;;1.60;;
75297;SDS011;63896;45.990;18.688;2023-07-28T08:31:40;3.15;;;1.40;;
75297;SDS011;63896;45.990;18.688;2023-07-28T08:34:44;1.63;;;1.20;;
75297;SDS011;63896;45.990;18.688;2023-07-28T08:37:47;3.78;;;1.67;;
75297;SDS011;63896;45.990;18.688;2023-07-28T08:40:50;2.22;;;1.40;;
75297;SDS011;63896;45.990;18.688;2023-07-28T08:43:53;5.70;;;1.52;;
75297;SDS011;63896;45.990;18.688;2023-07-28T08:46:56;2.45;;;1.50;;
75297;SDS011;63896;45.990;18.688;2023-07-28T08:49:59;4.20;;;1.43;;
75297;SDS011;63896;45.990;18.688;2023-07-28T08:53:02;3.30;;;1.80;;
75297;SDS011;63896;45.990;18.688;2023-07-28T08:56:05;3.63;;;2.28;;
75297;SDS011;63896;45.990;18.688;2023-07-28T08:59:09;2.05;;;1.65;;
75297;SDS011;63896;45.990;18.688;2023-07-28T09:02:13;1.73;;;1.40;;
75297;SDS011;63896;45.990;18.688;2023-07-28T09:05:19;3.30;;;1.10;;
75297;SDS011;63896;45.990;18.688;2023-07-28T09:08:23;2.08;;;1.23;;
75297;SDS011;63896;45.990;18.688;2023-07-28T09:11:26;2.20;;;1.40;;
75297;SDS011;63896;45.990;18.688;2023-07-28T09:14:37;2.42;;;1.30;;
75297;SDS011;63896;45.990;18.688;2023-07-28T09:17:41;1.60;;;1.50;;
75297;SDS011;63896;45.990;18.688;2023-07-28T09:20:45;2.17;;;1.00;;
75297;SDS011;63896;45.990;18.688;2023-07-28T09:23:48;2.38;;;1.13;;
75297;SDS011;63896;45.990;18.688;2023-07-28T09:26:51;2.88;;;1.30;;
75297;SDS011;63896;45.990;18.688;2023-07-28T09:29:55;1.40;;;1.30;;
75297;SDS011;63896;45.990;18.688;2023-07-28T09:32:58;3.38;;;1.70;;
75297;SDS011;63896;45.990;18.688;2023-07-28T09:36:11;3.77;;;1.40;;
75297;SDS011;63896;45.990;18.688;2023-07-28T09:39:16;3.15;;;1.25;;
75297;SDS011;63896;45.990;18.688;2023-07-28T09:42:20;4.93;;;1.40;;
75297;SDS011;63896;45.990;18.688;2023-07-28T09:45:23;2.13;;;1.48;;
75297;SDS011;63896;45.990;18.688;2023-07-28T09:48:29;3.58;;;1.75;;
75297;SDS011;63896;45.990;18.688;2023-07-28T09:51:34;3.03;;;1.50;;
75297;SDS011;63896;45.990;18.688;2023-07-28T09:54:39;3.00;;;1.52;;
75297;SDS011;63896;45.990;18.688;2023-07-28T09:57:49;2.53;;;1.70;;
75297;SDS011;63896;45.990;18.688;2023-07-28T10:00:54;2.10;;;1.50;;
75297;SDS011;63896;45.990;18.688;2023-07-28T10:03:58;1.98;;;1.60;;
75297;SDS011;63896;45.990;18.688;2023-07-28T10:07:01;5.23;;;1.50;;
75297;SDS011;63896;45.990;18.688;2023-07-28T10:10:07;3.63;;;1.70;;
75297;SDS011;63896;45.990;18.688;2023-07-28T10:13:19;3.83;;;1.67;;
75297;SDS011;63896;45.990;18.688;2023-07-28T10:16:30;1.23;;;1.13;;
75297;SDS011;63896;45.990;18.688;2023-07-28T10:19:39;1.70;;;1.52;;
75297;SDS011;63896;45.990;18.688;2023-07-28T10:22:42;2.90;;;1.20;;
75297;SDS011;63896;45.990;18.688;2023-07-28T10:25:59;1.67;;;1.40;;
75297;SDS011;63896;45.990;18.688;2023-07-28T10:29:12;2.78;;;1.60;;
75297;SDS011;63896;45.990;18.688;2023-07-28T10:32:25;1.80;;;1.40;;
75297;SDS011;63896;45.990;18.688;2023-07-28T10:35:30;2.90;;;1.63;;
75297;SDS011;63896;45.990;18.688;2023-07-28T10:38:35;2.70;;;1.23;;
75297;SDS011;63896;45.990;18.688;2023-07-28T10:41:40;3.00;;;1.50;;
75297;SDS011;63896;45.990;18.688;2023-07-28T10:45:03;4.70;;;1.50;;
75297;SDS011;63896;45.990;18.688;2023-07-28T10:48:06;2.55;;;1.42;;
75297;SDS011;63896;45.990;18.688;2023-07-28T10:51:11;2.75;;;1.58;;
75297;SDS011;63896;45.990;18.688;2023-07-28T10:54:21;1.67;;;1.50;;
75297;SDS011;63896;45.990;18.688;2023-07-28T10:57:25;1.95;;;1.48;;
75297;SDS011;63896;45.990;18.688;2023-07-28T11:00:31;3.78;;;1.80;;
75297;SDS011;63896;45.990;18.688;2023-07-28T11:03:34;4.97;;;1.58;;
75297;SDS011;63896;45.990;18.688;2023-07-28T11:06:37;2.35;;;1.50;;
75297;SDS011;63896;45.990;18.688;2023-07-28T11:09:42;2.17;;;1.30;;
75297;SDS011;63896;45.990;18.688;2023-07-28T11:12:47;1.98;;;1.40;;
75297;SDS011;63896;45.990;18.688;2023-07-28T11:15:52;3.25;;;1.60;;
75297;SDS011;63896;45.990;18.688;2023-07-28T11:18:55;2.50;;;1.33;;
75297;SDS011;63896;45.990;18.688;2023-07-28T11:21:59;2.67;;;1.50;;
75297;SDS011;63896;45.990;18.688;2023-07-28T11:25:05;2.03;;;1.27;;
75297;SDS011;63896;45.990;18.688;2023-07-28T11:28:11;3.53;;;1.40;;
75297;SDS011;63896;45.990;18.688;2023-07-28T11:31:15;1.70;;;1.35;;
75297;SDS011;63896;45.990;18.688;2023-07-28T11:34:18;1.60;;;1.10;;
75297;SDS011;63896;45.990;18.688;2023-07-28T11:37:21;1.40;;;1.20;;
75297;SDS011;63896;45.990;18.688;2023-07-28T11:40:24;2.00;;;1.27;;
75297;SDS011;63896;45.990;18.688;2023-07-28T11:43:28;1.77;;;1.50;;
75297;SDS011;63896;45.990;18.688;2023-07-28T11:46:38;2.17;;;1.30;;
75297;SDS011;63896;45.990;18.688;2023-07-28T11:49:45;4.30;;;1.50;;
75297;SDS011;63896;45.990;18.688;2023-07-28T11:52:49;1.65;;;1.40;;
75297;SDS011;63896;45.990;18.688;2023-07-28T11:55:52;1.77;;;1.20;;
75297;SDS011;63896;45.990;18.688;2023-07-28T11:58:56;5.95;;;1.60;;
75297;SDS011;63896;45.990;18.688;2023-07-28T12:02:01;2.70;;;1.63;;
75297;SDS011;63896;45.990;18.688;2023-07-28T12:05:13;3.08;;;1.25;;
75297;SDS011;63896;45.990;18.688;2023-07-28T12:08:38;1.40;;;1.30;;
75297;SDS011;63896;45.990;18.688;2023-07-28T12:11:44;1.57;;;1.30;;
75297;SDS011;63896;45.990;18.688;2023-07-28T12:14:50;2.05;;;1.30;;
75297;SDS011;63896;45.990;18.688;2023-07-28T12:18:03;1.75;;;1.20;;
75297;SDS011;63896;45.990;18.688;2023-07-28T12:21:19;3.42;;;1.30;;
75297;SDS011;63896;45.990;18.688;2023-07-28T12:24:22;3.40;;;1.70;;
75297;SDS011;63896;45.990;18.688;2023-07-28T12:27:25;3.30;;;1.30;;
75297;SDS011;63896;45.990;18.688;2023-07-28T12:30:34;2.38;;;1.45;;
75297;SDS011;63896;45.990;18.688;2023-07-28T12:33:37;3.83;;;1.40;;
75297;SDS011;63896;45.990;18.688;2023-07-28T12:36:41;2.83;;;1.70;;
75297;SDS011;63896;45.990;18.688;2023-07-28T12:39:47;2.05;;;1.55;;
75297;SDS011;63896;45.990;18.688;2023-07-28T12:42:53;4.93;;;1.70;;
75297;SDS011;63896;45.990;18.688;2023-07-28T12:46:00;7.63;;;1.63;;
75297;SDS011;63896;45.990;18.688;2023-07-28T12:49:06;2.33;;;1.50;;
75297;SDS011;63896;45.990;18.688;2023-07-28T12:52:09;2.10;;;1.50;;
75297;SDS011;63896;45.990;18.688;2023-07-28T12:55:21;4.03;;;1.60;;
75297;SDS011;63896;45.990;18.688;2023-07-28T12:58:24;5.10;;;2.20;;
75297;SDS011;63896;45.990;18.688;2023-07-28T13:01:29;6.22;;;1.48;;
75297;SDS011;63896;45.990;18.688;2023-07-28T13:04:32;3.17;;;1.70;;
75297;SDS011;63896;45.990;18.688;2023-07-28T13:07:36;4.40;;;1.80;;
75297;SDS011;63896;45.990;18.688;2023-07-28T13:10:42;3.90;;;1.58;;
75297;SDS011;63896;45.990;18.688;2023-07-28T13:13:47;5.13;;;2.50;;
75297;SDS011;63896;45.990;18.688;2023-07-28T13:16:51;3.80;;;1.60;;
75297;SDS011;63896;45.990;18.688;2023-07-28T13:19:53;6.32;;;1.65;;
75297;SDS011;63896;45.990;18.688;2023-07-28T13:22:56;5.18;;;2.00;;
75297;SDS011;63896;45.990;18.688;2023-07-28T13:25:59;2.60;;;1.42;;
75297;SDS011;63896;45.990;18.688;2023-07-28T13:29:02;5.97;;;1.57;;
75297;SDS011;63896;45.990;18.688;2023-07-28T13:32:13;6.85;;;1.40;;
75297;SDS011;63896;45.990;18.688;2023-07-28T13:35:18;2.75;;;1.80;;
75297;SDS011;63896;45.990;18.688;2023-07-28T13:38:21;8.50;;;4.88;;
75297;SDS011;63896;45.990;18.688;2023-07-28T13:41:24;4.28;;;1.20;;
75297;SDS011;63896;45.990;18.688;2023-07-28T13:44:27;1.57;;;1.20;;
75297;SDS011;63896;45.990;18.688;2023-07-28T13:47:33;4.35;;;1.52;;
75297;SDS011;63896;45.990;18.688;2023-07-28T13:50:37;1.55;;;1.08;;
75297;SDS011;63896;45.990;18.688;2023-07-28T13:53:40;3.40;;;1.00;;
75297;SDS011;63896;45.990;18.688;2023-07-28T13:56:42;2.13;;;1.20;;
75297;SDS011;63896;45.990;18.688;2023-07-28T13:59:48;3.50;;;1.00;;
75297;SDS011;63896;45.990;18.688;2023-07-28T14:02:51;4.15;;;0.90;;
75297;SDS011;63896;45.990;18.688;2023-07-28T14:05:54;2.58;;;1.10;;
75297;SDS011;63896;45.990;18.688;2023-07-28T14:08:57;3.72;;;1.10;;
75297;SDS011;63896;45.990;18.688;2023-07-28T14:12:00;4.72;;;1.10;;
75297;SDS011;63896;45.990;18.688;2023-07-28T14:15:03;6.03;;;1.10;;
75297;SDS011;63896;45.990;18.688;2023-07-28T14:18:07;3.42;;;1.17;;
75297;SDS011;63896;45.990;18.688;2023-07-28T14:21:10;3.47;;;1.35;;
75297;SDS011;63896;45.990;18.688;2023-07-28T14:24:13;1.65;;;1.00;;
75297;SDS011;63896;45.990;18.688;2023-07-28T14:27:16;2.72;;;1.23;;
75297;SDS011;63896;45.990;18.688;2023-07-28T14:30:18;2.70;;;1.10;;
75297;SDS011;63896;45.990;18.688;2023-07-28T14:33:21;3.67;;;0.90;;
75297;SDS011;63896;45.990;18.688;2023-07-28T14:36:24;4.28;;;1.00;;
75297;SDS011;63896;45.990;18.688;2023-07-28T14:39:27;3.17;;;1.08;;
75297;SDS011;63896;45.990;18.688;2023-07-28T14:42:30;2.20;;;0.98;;
75297;SDS011;63896;45.990;18.688;2023-07-28T14:45:33;1.27;;;0.80;;
75297;SDS011;63896;45.990;18.688;2023-07-28T14:48:36;3.95;;;1.08;;
75297;SDS011;63896;45.990;18.688;2023-07-28T14:51:39;3.20;;;1.25;;
75297;SDS011;63896;45.990;18.688;2023-07-28T14:54:41;2.72;;;0.80;;
75297;SDS011;63896;45.990;18.688;2023-07-28T14:57:44;2.83;;;1.15;;
75297;SDS011;63896;45.990;18.688;2023-07-28T15:00:47;2.17;;;0.83;;
75297;SDS011;63896;45.990;18.688;2023-07-28T15:03:50;5.75;;;1.00;;
75297;SDS011;63896;45.990;18.688;2023-07-28T15:06:53;3.63;;;0.93;;
75297;SDS011;63896;45.990;18.688;2023-07-28T15:09:55;3.10;;;0.90;;
75297;SDS011;63896;45.990;18.688;2023-07-28T15:12:58;2.97;;;1.00;;
75297;SDS011;63896;45.990;18.688;2023-07-28T15:16:01;1.90;;;1.30;;
75297;SDS011;63896;45.990;18.688;2023-07-28T15:19:04;2.40;;;1.17;;
75297;SDS011;63896;45.990;18.688;2023-07-28T15:22:07;5.85;;;1.42;;
75297;SDS011;63896;45.990;18.688;2023-07-28T15:25:10;2.97;;;1.33;;
75297;SDS011;63896;45.990;18.688;2023-07-28T15:28:13;3.80;;;1.90;;
75297;SDS011;63896;45.990;18.688;2023-07-28T15:31:16;2.13;;;1.00;;
75297;SDS011;63896;45.990;18.688;2023-07-28T15:34:19;3.35;;;1.40;;
75297;SDS011;63896;45.990;18.688;2023-07-28T15:37:22;4.47;;;1.45;;
75297;SDS011;63896;45.990;18.688;2023-07-28T15:40:25;4.60;;;1.10;;
75297;SDS011;63896;45.990;18.688;2023-07-28T15:43:28;2.45;;;1.38;;
75297;SDS011;63896;45.990;18.688;2023-07-28T15:46:31;6.60;;;1.33;;
75297;SDS011;63896;45.990;18.688;2023-07-28T15:49:34;2.05;;;1.10;;
75297;SDS011;63896;45.990;18.688;2023-07-28T15:52:37;3.15;;;1.13;;
75297;SDS011;63896;45.990;18.688;2023-07-28T15:55:39;7.30;;;1.30;;
75297;SDS011;63896;45.990;18.688;2023-07-28T15:58:42;5.35;;;1.10;;
75297;SDS011;63896;45.990;18.688;2023-07-28T16:01:45;6.30;;;1.23;;
75297;SDS011;63896;45.990;18.688;2023-07-28T16:04:48;6.25;;;1.27;;
75297;SDS011;63896;45.990;18.688;2023-07-28T16:07:52;3.67;;;1.30;;
75297;SDS011;63896;45.990;18.688;2023-07-28T16:10:55;2.85;;;1.02;;
75297;SDS011;63896;45.990;18.688;2023-07-28T16:13:58;1.98;;;1.00;;
75297;SDS011;63896;45.990;18.688;2023-07-28T16:17:01;2.40;;;1.10;;
75297;SDS011;63896;45.990;18.688;2023-07-28T16:20:06;5.13;;;1.23;;
75297;SDS011;63896;45.990;18.688;2023-07-28T16:23:10;1.50;;;1.38;;
75297;SDS011;63896;45.990;18.688;2023-07-28T16:26:13;5.47;;;1.10;;
75297;SDS011;63896;45.990;18.688;2023-07-28T16:29:16;4.10;;;1.20;;
75297;SDS011;63896;45.990;18.688;2023-07-28T16:32:18;5.13;;;1.00;;
75297;SDS011;63896;45.990;18.688;2023-07-28T16:35:21;4.88;;;1.13;;
75297;SDS011;63896;45.990;18.688;2023-07-28T16:38:24;8.90;;;1.60;;
75297;SDS011;63896;45.990;18.688;2023-07-28T16:41:27;3.90;;;1.40;;
75297;SDS011;63896;45.990;18.688;2023-07-28T16:44:30;5.13;;;1.48;;
75297;SDS011;63896;45.990;18.688;2023-07-28T16:47:33;6.43;;;1.07;;
75297;SDS011;63896;45.990;18.688;2023-07-28T16:50:39;6.65;;;1.58;;
75297;SDS011;63896;45.990;18.688;2023-07-28T16:53:42;3.67;;;1.30;;
75297;SDS011;63896;45.990;18.688;2023-07-28T16:56:45;5.63;;;1.20;;
75297;SDS011;63896;45.990;18.688;2023-07-28T16:59:51;3.08;;;1.23;;
75297;SDS011;63896;45.990;18.688;2023-07-28T17:02:54;4.50;;;1.27;;
75297;SDS011;63896;45.990;18.688;2023-07-28T17:05:57;2.38;;;1.13;;
75297;SDS011;63896;45.990;18.688;2023-07-28T17:08:59;2.60;;;1.35;;
75297;SDS011;63896;45.990;18.688;2023-07-28T17:12:02;2.95;;;1.30;;
75297;SDS011;63896;45.990;18.688;2023-07-28T17:15:05;4.68;;;1.50;;
75297;SDS011;63896;45.990;18.688;2023-07-28T17:18:09;4.43;;;1.23;;
75297;SDS011;63896;45.990;18.688;2023-07-28T17:21:11;2.25;;;1.20;;
75297;SDS011;63896;45.990;18.688;2023-07-28T17:24:14;3.28;;;1.48;;
75297;SDS011;63896;45.990;18.688;2023-07-28T17:27:17;5.80;;;1.10;;
75297;SDS011;63896;45.990;18.688;2023-07-28T17:30:20;3.10;;;1.35;;
75297;SDS011;63896;45.990;18.688;2023-07-28T17:33:23;1.80;;;1.17;;
75297;SDS011;63896;45.990;18.688;2023-07-28T17:36:26;4.07;;;1.40;;
75297;SDS011;63896;45.990;18.688;2023-07-28T17:39:29;4.43;;;1.40;;
75297;SDS011;63896;45.990;18.688;2023-07-28T17:42:32;3.78;;;1.20;;
75297;SDS011;63896;45.990;18.688;2023-07-28T17:45:35;2.15;;;1.20;;
75297;SDS011;63896;45.990;18.688;2023-07-28T17:48:45;3.33;;;1.10;;
75297;SDS011;63896;45.990;18.688;2023-07-28T17:51:48;2.97;;;1.10;;
75297;SDS011;63896;45.990;18.688;2023-07-28T17:54:51;3.70;;;1.27;;
75297;SDS011;63896;45.990;18.688;2023-07-28T17:57:54;2.33;;;1.23;;
75297;SDS011;63896;45.990;18.688;2023-07-28T18:00:56;3.85;;;1.58;;
75297;SDS011;63896;45.990;18.688;2023-07-28T18:03:59;4.87;;;1.40;;
75297;SDS011;63896;45.990;18.688;2023-07-28T18:07:02;5.38;;;1.90;;
75297;SDS011;63896;45.990;18.688;2023-07-28T18:10:06;6.53;;;1.92;;
75297;SDS011;63896;45.990;18.688;2023-07-28T18:13:09;2.70;;;1.23;;
75297;SDS011;63896;45.990;18.688;2023-07-28T18:16:12;5.18;;;2.10;;
75297;SDS011;63896;45.990;18.688;2023-07-28T18:19:17;6.47;;;2.40;;